sensor_id;sensor_type;location;lat;lon;timestamp;P1;durP1;ratioP1;P2;durP2;ratioP2
1436;SDS011;712;51.026;13.792;2023-04-01T00:01:26;3.93;;;0.70;;
1436;SDS011;712;51.026;13.792;2023-04-01T00:03:51;3.40;;;0.98;;
1436;SDS011;712;51.026;13.792;2023-04-01T00:06:18;2.80;;;0.60;;
1436;SDS011;712;51.026;13.792;2023-04-01T00:08:44;4.20;;;0.70;;
1436;SDS011;712;51.026;13.792;2023-04-01T00:11:09;4.38;;;0.60;;
1436;SDS011;712;51.026;13.792;2023-04-01T00:13:35;2.78;;;0.60;;
1436;SDS011;712;51.026;13.792;2023-04-01T00:16:00;2.67;;;0.43;;
1436;SDS011;712;51.026;13.792;2023-04-01T00:18:26;3.40;;;0.65;;
1436;SDS011;712;51.026;13.792;2023-04-01T00:20:52;2.90;;;0.40;;
1436;SDS011;712;51.026;13.792;2023-04-01T00:23:17;3.20;;;0.70;;
1436;SDS011;712;51.026;13.792;2023-04-01T00:25:43;2.33;;;0.47;;
1436;SDS011;712;51.026;13.792;2023-04-01T00:28:08;2.72;;;0.52;;
1436;SDS011;712;51.026;13.792;2023-04-01T00:30:35;2.53;;;0.60;;
1436;SDS011;712;51.026;13.792;2023-04-01T00:33:00;3.08;;;0.60;;
1436;SDS011;712;51.026;13.792;2023-04-01T00:35:26;1.85;;;0.40;;
1436;SDS011;712;51.026;13.792;2023-04-01T00:37:51;2.03;;;0.60;;
1436;SDS011;712;51.026;13.792;2023-04-01T00:40:27;2.73;;;0.60;;
1436;SDS011;712;51.026;13.792;2023-04-01T00:42:53;2.75;;;0.60;;
1436;SDS011;712;51.026;13.792;2023-04-01T00:45:23;4.10;;;0.57;;
1436;SDS011;712;51.026;13.792;2023-04-01T00:47:50;3.05;;;0.45;;
1436;SDS011;712;51.026;13.792;2023-04-01T00:50:15;4.13;;;0.77;;
1436;SDS011;712;51.026;13.792;2023-04-01T00:52:40;2.28;;;0.50;;
1436;SDS011;712;51.026;13.792;2023-04-01T00:55:05;3.97;;;0.60;;
1436;SDS011;712;51.026;13.792;2023-04-01T00:57:32;4.03;;;0.68;;
1436;SDS011;712;51.026;13.792;2023-04-01T00:59:59;2.90;;;0.55;;
1436;SDS011;712;51.026;13.792;2023-04-01T01:02:24;5.13;;;0.70;;
1436;SDS011;712;51.026;13.792;2023-04-01T01:04:50;2.08;;;0.60;;
1436;SDS011;712;51.026;13.792;2023-04-01T01:07:26;2.55;;;0.50;;
1436;SDS011;712;51.026;13.792;2023-04-01T01:12:23;2.07;;;0.40;;
1436;SDS011;712;51.026;13.792;2023-04-01T01:15:02;3.40;;;0.52;;
1436;SDS011;712;51.026;13.792;2023-04-01T01:17:32;3.65;;;0.52;;
1436;SDS011;712;51.026;13.792;2023-04-01T01:22:31;1.30;;;0.40;;
1436;SDS011;712;51.026;13.792;2023-04-01T01:27:58;1.70;;;0.38;;
1436;SDS011;712;51.026;13.792;2023-04-01T01:30:42;2.78;;;0.50;;
1436;SDS011;712;51.026;13.792;2023-04-01T01:33:21;2.88;;;0.50;;
1436;SDS011;712;51.026;13.792;2023-04-01T01:35:50;3.38;;;0.50;;
1436;SDS011;712;51.026;13.792;2023-04-01T01:38:18;3.30;;;0.57;;
1436;SDS011;712;51.026;13.792;2023-04-01T01:40:45;2.00;;;0.40;;
1436;SDS011;712;51.026;13.792;2023-04-01T01:43:12;3.47;;;0.57;;
1436;SDS011;712;51.026;13.792;2023-04-01T01:45:40;2.25;;;0.40;;
1436;SDS011;712;51.026;13.792;2023-04-01T01:48:07;5.28;;;0.60;;
1436;SDS011;712;51.026;13.792;2023-04-01T01:50:33;4.75;;;0.60;;
1436;SDS011;712;51.026;13.792;2023-04-01T01:53:01;2.22;;;0.50;;
1436;SDS011;712;51.026;13.792;2023-04-01T01:55:30;2.55;;;0.50;;
1436;SDS011;712;51.026;13.792;2023-04-01T01:58:00;2.47;;;0.50;;
1436;SDS011;712;51.026;13.792;2023-04-01T02:00:27;3.15;;;0.52;;
1436;SDS011;712;51.026;13.792;2023-04-01T02:02:52;3.63;;;0.50;;
1436;SDS011;712;51.026;13.792;2023-04-01T02:05:21;2.97;;;0.75;;
1436;SDS011;712;51.026;13.792;2023-04-01T02:07:49;3.20;;;0.50;;
1436;SDS011;712;51.026;13.792;2023-04-01T02:10:17;2.28;;;0.50;;
1436;SDS011;712;51.026;13.792;2023-04-01T02:12:42;3.45;;;0.63;;
1436;SDS011;712;51.026;13.792;2023-04-01T02:15:11;3.33;;;0.50;;
1436;SDS011;712;51.026;13.792;2023-04-01T02:17:38;2.63;;;0.40;;
1436;SDS011;712;51.026;13.792;2023-04-01T02:20:09;2.95;;;0.57;;
1436;SDS011;712;51.026;13.792;2023-04-01T02:22:37;3.08;;;0.50;;
1436;SDS011;712;51.026;13.792;2023-04-01T02:25:07;2.35;;;0.50;;
1436;SDS011;712;51.026;13.792;2023-04-01T02:27:33;3.13;;;0.93;;
1436;SDS011;712;51.026;13.792;2023-04-01T02:29:58;3.92;;;0.70;;
1436;SDS011;712;51.026;13.792;2023-04-01T02:32:24;4.10;;;0.70;;
1436;SDS011;712;51.026;13.792;2023-04-01T02:34:50;4.60;;;0.68;;
1436;SDS011;712;51.026;13.792;2023-04-01T02:37:15;3.05;;;0.60;;
1436;SDS011;712;51.026;13.792;2023-04-01T02:39:40;3.27;;;0.50;;
1436;SDS011;712;51.026;13.792;2023-04-01T02:42:07;4.20;;;0.65;;
1436;SDS011;712;51.026;13.792;2023-04-01T02:44:32;3.42;;;0.70;;
1436;SDS011;712;51.026;13.792;2023-04-01T02:46:57;3.60;;;0.70;;
1436;SDS011;712;51.026;13.792;2023-04-01T02:49:23;5.63;;;0.68;;
1436;SDS011;712;51.026;13.792;2023-04-01T02:51:48;3.20;;;0.70;;
1436;SDS011;712;51.026;13.792;2023-04-01T02:54:13;4.10;;;0.60;;
1436;SDS011;712;51.026;13.792;2023-04-01T02:56:38;3.45;;;0.70;;
1436;SDS011;712;51.026;13.792;2023-04-01T02:59:03;4.80;;;0.80;;
1436;SDS011;712;51.026;13.792;2023-04-01T03:01:28;3.25;;;0.60;;
1436;SDS011;712;51.026;13.792;2023-04-01T03:03:54;4.88;;;0.70;;
1436;SDS011;712;51.026;13.792;2023-04-01T03:06:19;3.50;;;0.70;;
1436;SDS011;712;51.026;13.792;2023-04-01T03:08:44;3.77;;;0.90;;
1436;SDS011;712;51.026;13.792;2023-04-01T03:11:09;3.75;;;0.70;;
1436;SDS011;712;51.026;13.792;2023-04-01T03:13:35;4.25;;;1.00;;
1436;SDS011;712;51.026;13.792;2023-04-01T03:16:00;3.10;;;0.50;;
1436;SDS011;712;51.026;13.792;2023-04-01T03:18:25;5.00;;;1.00;;
1436;SDS011;712;51.026;13.792;2023-04-01T03:20:50;2.97;;;0.60;;
1436;SDS011;712;51.026;13.792;2023-04-01T03:23:16;4.60;;;0.70;;
1436;SDS011;712;51.026;13.792;2023-04-01T03:25:44;3.55;;;0.60;;
1436;SDS011;712;51.026;13.792;2023-04-01T03:28:09;3.53;;;0.73;;
1436;SDS011;712;51.026;13.792;2023-04-01T03:30:35;2.13;;;0.52;;
1436;SDS011;712;51.026;13.792;2023-04-01T03:33:00;3.40;;;0.65;;
1436;SDS011;712;51.026;13.792;2023-04-01T03:35:25;4.07;;;0.90;;
1436;SDS011;712;51.026;13.792;2023-04-01T03:37:51;3.28;;;0.80;;
1436;SDS011;712;51.026;13.792;2023-04-01T03:40:16;4.70;;;0.80;;
1436;SDS011;712;51.026;13.792;2023-04-01T03:42:42;3.57;;;0.70;;
1436;SDS011;712;51.026;13.792;2023-04-01T03:45:07;4.40;;;0.60;;
1436;SDS011;712;51.026;13.792;2023-04-01T03:47:32;4.40;;;0.60;;
1436;SDS011;712;51.026;13.792;2023-04-01T03:49:57;3.47;;;0.73;;
1436;SDS011;712;51.026;13.792;2023-04-01T03:52:22;5.30;;;0.95;;
1436;SDS011;712;51.026;13.792;2023-04-01T03:54:48;3.87;;;0.80;;
1436;SDS011;712;51.026;13.792;2023-04-01T03:57:13;1.93;;;0.53;;
1436;SDS011;712;51.026;13.792;2023-04-01T03:59:38;6.35;;;1.05;;
1436;SDS011;712;51.026;13.792;2023-04-01T04:02:03;5.00;;;0.77;;
1436;SDS011;712;51.026;13.792;2023-04-01T04:04:29;3.53;;;0.60;;
1436;SDS011;712;51.026;13.792;2023-04-01T04:06:55;4.15;;;0.70;;
1436;SDS011;712;51.026;13.792;2023-04-01T04:09:20;4.88;;;0.57;;
1436;SDS011;712;51.026;13.792;2023-04-01T04:11:45;4.43;;;0.73;;
1436;SDS011;712;51.026;13.792;2023-04-01T04:14:10;2.95;;;0.60;;
1436;SDS011;712;51.026;13.792;2023-04-01T04:16:35;3.90;;;0.60;;
1436;SDS011;712;51.026;13.792;2023-04-01T04:19:03;4.15;;;0.75;;
1436;SDS011;712;51.026;13.792;2023-04-01T04:21:28;3.27;;;0.70;;
1436;SDS011;712;51.026;13.792;2023-04-01T04:23:54;3.63;;;0.90;;
1436;SDS011;712;51.026;13.792;2023-04-01T04:26:19;3.67;;;0.70;;
1436;SDS011;712;51.026;13.792;2023-04-01T04:28:44;3.33;;;0.60;;
1436;SDS011;712;51.026;13.792;2023-04-01T04:31:10;3.20;;;0.65;;
1436;SDS011;712;51.026;13.792;2023-04-01T04:33:35;4.73;;;0.80;;
1436;SDS011;712;51.026;13.792;2023-04-01T04:36:00;3.10;;;0.60;;
1436;SDS011;712;51.026;13.792;2023-04-01T04:38:25;4.60;;;0.60;;
1436;SDS011;712;51.026;13.792;2023-04-01T04:40:50;4.70;;;0.63;;
1436;SDS011;712;51.026;13.792;2023-04-01T04:43:16;3.07;;;0.70;;
1436;SDS011;712;51.026;13.792;2023-04-01T04:45:41;6.13;;;0.80;;
1436;SDS011;712;51.026;13.792;2023-04-01T04:48:07;4.28;;;0.70;;
1436;SDS011;712;51.026;13.792;2023-04-01T04:50:33;4.25;;;0.70;;
1436;SDS011;712;51.026;13.792;2023-04-01T04:52:58;5.82;;;0.82;;
1436;SDS011;712;51.026;13.792;2023-04-01T04:55:23;2.80;;;0.57;;
1436;SDS011;712;51.026;13.792;2023-04-01T04:57:48;6.63;;;0.80;;
1436;SDS011;712;51.026;13.792;2023-04-01T05:00:13;3.55;;;0.75;;
1436;SDS011;712;51.026;13.792;2023-04-01T05:02:39;4.75;;;0.70;;
1436;SDS011;712;51.026;13.792;2023-04-01T05:05:04;5.03;;;0.80;;
1436;SDS011;712;51.026;13.792;2023-04-01T05:07:30;3.42;;;0.80;;
1436;SDS011;712;51.026;13.792;2023-04-01T05:09:55;2.70;;;0.60;;
1436;SDS011;712;51.026;13.792;2023-04-01T05:12:20;2.87;;;0.50;;
1436;SDS011;712;51.026;13.792;2023-04-01T05:14:45;3.07;;;0.63;;
1436;SDS011;712;51.026;13.792;2023-04-01T05:17:11;4.37;;;0.60;;
1436;SDS011;712;51.026;13.792;2023-04-01T05:19:36;3.55;;;0.82;;
1436;SDS011;712;51.026;13.792;2023-04-01T05:22:02;2.80;;;0.97;;
1436;SDS011;712;51.026;13.792;2023-04-01T05:24:27;2.93;;;0.53;;
1436;SDS011;712;51.026;13.792;2023-04-01T05:26:52;6.20;;;0.93;;
1436;SDS011;712;51.026;13.792;2023-04-01T05:29:17;2.00;;;0.50;;
1436;SDS011;712;51.026;13.792;2023-04-01T05:31:42;3.27;;;0.53;;
1436;SDS011;712;51.026;13.792;2023-04-01T05:34:07;3.40;;;0.57;;
1436;SDS011;712;51.026;13.792;2023-04-01T05:36:33;2.83;;;0.53;;
1436;SDS011;712;51.026;13.792;2023-04-01T05:38:58;3.17;;;0.50;;
1436;SDS011;712;51.026;13.792;2023-04-01T05:41:23;2.60;;;0.60;;
1436;SDS011;712;51.026;13.792;2023-04-01T05:43:48;1.83;;;0.37;;
1436;SDS011;712;51.026;13.792;2023-04-01T05:46:13;3.03;;;0.60;;
1436;SDS011;712;51.026;13.792;2023-04-01T05:48:38;4.65;;;0.65;;
1436;SDS011;712;51.026;13.792;2023-04-01T05:51:04;3.63;;;0.70;;
1436;SDS011;712;51.026;13.792;2023-04-01T05:53:29;3.90;;;0.70;;
1436;SDS011;712;51.026;13.792;2023-04-01T05:55:54;3.67;;;0.75;;
1436;SDS011;712;51.026;13.792;2023-04-01T05:58:20;3.57;;;0.50;;
1436;SDS011;712;51.026;13.792;2023-04-01T06:00:45;3.22;;;0.70;;
1436;SDS011;712;51.026;13.792;2023-04-01T06:03:10;4.20;;;0.85;;
1436;SDS011;712;51.026;13.792;2023-04-01T06:05:39;2.78;;;0.40;;
1436;SDS011;712;51.026;13.792;2023-04-01T06:08:05;3.60;;;0.80;;
1436;SDS011;712;51.026;13.792;2023-04-01T06:13:12;3.75;;;0.65;;
1436;SDS011;712;51.026;13.792;2023-04-01T06:16:00;3.22;;;0.65;;
1436;SDS011;712;51.026;13.792;2023-04-01T06:18:34;3.28;;;1.00;;
1436;SDS011;712;51.026;13.792;2023-04-01T06:21:21;4.20;;;0.70;;
1436;SDS011;712;51.026;13.792;2023-04-01T06:23:52;5.30;;;1.13;;
1436;SDS011;712;51.026;13.792;2023-04-01T06:29:05;3.30;;;0.80;;
1436;SDS011;712;51.026;13.792;2023-04-01T06:31:40;5.00;;;0.98;;
1436;SDS011;712;51.026;13.792;2023-04-01T06:36:35;5.97;;;0.80;;
1436;SDS011;712;51.026;13.792;2023-04-01T06:39:05;5.22;;;1.05;;
1436;SDS011;712;51.026;13.792;2023-04-01T06:46:51;4.72;;;0.70;;
1436;SDS011;712;51.026;13.792;2023-04-01T06:54:55;2.65;;;0.80;;
1436;SDS011;712;51.026;13.792;2023-04-01T06:57:34;3.88;;;0.60;;
1436;SDS011;712;51.026;13.792;2023-04-01T07:00:01;3.42;;;0.70;;
1436;SDS011;712;51.026;13.792;2023-04-01T07:02:41;3.58;;;0.55;;
1436;SDS011;712;51.026;13.792;2023-04-01T07:05:08;4.20;;;0.80;;
1436;SDS011;712;51.026;13.792;2023-04-01T07:07:40;3.47;;;0.60;;
1436;SDS011;712;51.026;13.792;2023-04-01T07:10:11;3.45;;;0.57;;
1436;SDS011;712;51.026;13.792;2023-04-01T07:12:40;2.45;;;0.50;;
1436;SDS011;712;51.026;13.792;2023-04-01T07:15:16;2.10;;;0.52;;
1436;SDS011;712;51.026;13.792;2023-04-01T07:17:41;4.03;;;0.70;;
1436;SDS011;712;51.026;13.792;2023-04-01T07:20:13;4.65;;;1.20;;
1436;SDS011;712;51.026;13.792;2023-04-01T07:22:44;4.50;;;0.80;;
1436;SDS011;712;51.026;13.792;2023-04-01T07:25:12;5.40;;;1.58;;
1436;SDS011;712;51.026;13.792;2023-04-01T07:27:38;3.35;;;0.50;;
1436;SDS011;712;51.026;13.792;2023-04-01T07:30:06;3.37;;;1.00;;
1436;SDS011;712;51.026;13.792;2023-04-01T07:32:57;4.57;;;0.95;;
1436;SDS011;712;51.026;13.792;2023-04-01T07:35:32;3.25;;;0.68;;
1436;SDS011;712;51.026;13.792;2023-04-01T07:47:45;3.70;;;1.00;;
1436;SDS011;712;51.026;13.792;2023-04-01T07:50:19;4.53;;;1.40;;
1436;SDS011;712;51.026;13.792;2023-04-01T07:52:50;3.85;;;0.95;;
1436;SDS011;712;51.026;13.792;2023-04-01T07:55:24;5.72;;;1.30;;
1436;SDS011;712;51.026;13.792;2023-04-01T07:57:53;2.30;;;0.70;;
1436;SDS011;712;51.026;13.792;2023-04-01T08:00:33;3.30;;;0.70;;
1436;SDS011;712;51.026;13.792;2023-04-01T08:03:10;5.07;;;0.85;;
1436;SDS011;712;51.026;13.792;2023-04-01T08:05:41;2.65;;;0.50;;
1436;SDS011;712;51.026;13.792;2023-04-01T08:08:10;2.38;;;0.60;;
1436;SDS011;712;51.026;13.792;2023-04-01T08:10:50;4.70;;;0.70;;
1436;SDS011;712;51.026;13.792;2023-04-01T08:13:31;3.97;;;0.50;;
1436;SDS011;712;51.026;13.792;2023-04-01T08:16:09;3.50;;;0.80;;
1436;SDS011;712;51.026;13.792;2023-04-01T08:18:43;3.47;;;0.73;;
1436;SDS011;712;51.026;13.792;2023-04-01T08:21:16;3.85;;;0.70;;
1436;SDS011;712;51.026;13.792;2023-04-01T08:23:45;4.90;;;0.70;;
1436;SDS011;712;51.026;13.792;2023-04-01T08:26:18;3.47;;;0.63;;
1436;SDS011;712;51.026;13.792;2023-04-01T08:28:55;4.60;;;0.60;;
1436;SDS011;712;51.026;13.792;2023-04-01T08:31:29;4.38;;;1.30;;
1436;SDS011;712;51.026;13.792;2023-04-01T08:33:56;2.08;;;0.45;;
1436;SDS011;712;51.026;13.792;2023-04-01T08:36:26;2.25;;;0.45;;
1436;SDS011;712;51.026;13.792;2023-04-01T08:39:01;2.65;;;0.50;;
1436;SDS011;712;51.026;13.792;2023-04-01T08:44:11;1.85;;;0.40;;
1436;SDS011;712;51.026;13.792;2023-04-01T08:46:47;3.45;;;0.40;;
1436;SDS011;712;51.026;13.792;2023-04-01T08:54:30;1.42;;;0.50;;
1436;SDS011;712;51.026;13.792;2023-04-01T08:57:04;2.63;;;0.35;;
1436;SDS011;712;51.026;13.792;2023-04-01T08:59:45;2.70;;;0.40;;
1436;SDS011;712;51.026;13.792;2023-04-01T09:07:40;1.77;;;0.40;;
1436;SDS011;712;51.026;13.792;2023-04-01T09:10:31;2.63;;;0.40;;
1436;SDS011;712;51.026;13.792;2023-04-01T09:13:09;2.15;;;0.50;;
1436;SDS011;712;51.026;13.792;2023-04-01T09:15:47;5.88;;;0.50;;
1436;SDS011;712;51.026;13.792;2023-04-01T09:21:01;1.80;;;0.43;;
1436;SDS011;712;51.026;13.792;2023-04-01T09:23:33;3.00;;;0.40;;
1436;SDS011;712;51.026;13.792;2023-04-01T09:28:45;3.47;;;0.60;;
1436;SDS011;712;51.026;13.792;2023-04-01T09:31:16;1.90;;;0.43;;
1436;SDS011;712;51.026;13.792;2023-04-01T09:55:06;2.72;;;0.40;;
1436;SDS011;712;51.026;13.792;2023-04-01T10:02:44;2.33;;;0.70;;
1436;SDS011;712;51.026;13.792;2023-04-01T10:05:26;9.02;;;2.20;;
1436;SDS011;712;51.026;13.792;2023-04-01T10:11:19;5.10;;;1.05;;
1436;SDS011;712;51.026;13.792;2023-04-01T10:16:20;15.00;;;4.65;;
1436;SDS011;712;51.026;13.792;2023-04-01T10:18:54;15.90;;;5.38;;
1436;SDS011;712;51.026;13.792;2023-04-01T10:26:46;4.18;;;1.15;;
1436;SDS011;712;51.026;13.792;2023-04-01T10:29:23;4.40;;;1.38;;
1436;SDS011;712;51.026;13.792;2023-04-01T10:31:58;1.90;;;0.50;;
1436;SDS011;712;51.026;13.792;2023-04-01T10:54:58;3.95;;;0.90;;
1436;SDS011;712;51.026;13.792;2023-04-01T10:57:37;4.70;;;0.90;;
1436;SDS011;712;51.026;13.792;2023-04-01T11:03:03;3.60;;;0.68;;
1436;SDS011;712;51.026;13.792;2023-04-01T11:26:14;2.08;;;0.60;;
1436;SDS011;712;51.026;13.792;2023-04-01T11:28:59;2.78;;;0.60;;
1436;SDS011;712;51.026;13.792;2023-04-01T11:36:22;3.75;;;0.80;;
1436;SDS011;712;51.026;13.792;2023-04-01T11:39:11;3.95;;;0.77;;
1436;SDS011;712;51.026;13.792;2023-04-01T11:41:48;2.10;;;0.55;;
1436;SDS011;712;51.026;13.792;2023-04-01T11:44:19;2.00;;;0.40;;
1436;SDS011;712;51.026;13.792;2023-04-01T11:49:21;2.42;;;0.50;;
1436;SDS011;712;51.026;13.792;2023-04-01T11:54:35;0.65;;;0.35;;
1436;SDS011;712;51.026;13.792;2023-04-01T12:10:38;1.35;;;0.40;;
1436;SDS011;712;51.026;13.792;2023-04-01T12:13:05;1.65;;;0.40;;
1436;SDS011;712;51.026;13.792;2023-04-01T12:18:17;1.90;;;0.40;;
1436;SDS011;712;51.026;13.792;2023-04-01T12:20:48;1.60;;;0.40;;
1436;SDS011;712;51.026;13.792;2023-04-01T12:25:55;1.03;;;0.40;;
1436;SDS011;712;51.026;13.792;2023-04-01T12:31:24;2.38;;;0.40;;
1436;SDS011;712;51.026;13.792;2023-04-01T12:36:48;1.98;;;0.55;;
1436;SDS011;712;51.026;13.792;2023-04-01T12:39:37;1.80;;;0.57;;
1436;SDS011;712;51.026;13.792;2023-04-01T12:42:18;2.05;;;0.68;;
1436;SDS011;712;51.026;13.792;2023-04-01T12:45:00;1.60;;;0.47;;
1436;SDS011;712;51.026;13.792;2023-04-01T12:47:31;2.95;;;0.60;;
1436;SDS011;712;51.026;13.792;2023-04-01T12:55:35;2.63;;;0.70;;
1436;SDS011;712;51.026;13.792;2023-04-01T12:58:15;3.33;;;0.70;;
1436;SDS011;712;51.026;13.792;2023-04-01T13:01:05;3.33;;;0.90;;
1436;SDS011;712;51.026;13.792;2023-04-01T13:06:14;2.72;;;0.50;;
1436;SDS011;712;51.026;13.792;2023-04-01T13:08:43;2.08;;;0.60;;
1436;SDS011;712;51.026;13.792;2023-04-01T13:11:18;2.63;;;0.60;;
1436;SDS011;712;51.026;13.792;2023-04-01T13:19:00;3.58;;;0.63;;
1436;SDS011;712;51.026;13.792;2023-04-01T13:26:42;2.35;;;0.50;;
1436;SDS011;712;51.026;13.792;2023-04-01T13:29:14;2.53;;;0.68;;
1436;SDS011;712;51.026;13.792;2023-04-01T13:34:26;3.03;;;0.90;;
1436;SDS011;712;51.026;13.792;2023-04-01T13:44:29;3.92;;;1.00;;
1436;SDS011;712;51.026;13.792;2023-04-01T13:50:30;3.95;;;1.65;;
1436;SDS011;712;51.026;13.792;2023-04-01T13:55:19;4.05;;;0.90;;
1436;SDS011;712;51.026;13.792;2023-04-01T13:58:07;1.33;;;0.50;;
1436;SDS011;712;51.026;13.792;2023-04-01T14:05:45;0.73;;;0.20;;
1436;SDS011;712;51.026;13.792;2023-04-01T14:10:53;2.92;;;0.60;;
1436;SDS011;712;51.026;13.792;2023-04-01T14:13:26;4.93;;;1.45;;
1436;SDS011;712;51.026;13.792;2023-04-01T14:16:12;3.35;;;0.90;;
1436;SDS011;712;51.026;13.792;2023-04-01T14:21:08;6.07;;;2.10;;
1436;SDS011;712;51.026;13.792;2023-04-01T14:23:42;10.90;;;4.43;;
1436;SDS011;712;51.026;13.792;2023-04-01T14:28:47;5.82;;;1.83;;
1436;SDS011;712;51.026;13.792;2023-04-01T14:36:21;1.27;;;0.47;;
1436;SDS011;712;51.026;13.792;2023-04-01T14:41:40;1.48;;;0.45;;
1436;SDS011;712;51.026;13.792;2023-04-01T14:44:11;13.15;;;4.00;;
1436;SDS011;712;51.026;13.792;2023-04-01T14:49:32;1.10;;;0.40;;
1436;SDS011;712;51.026;13.792;2023-04-01T14:52:16;3.25;;;1.10;;
1436;SDS011;712;51.026;13.792;2023-04-01T14:54:43;3.42;;;1.00;;
1436;SDS011;712;51.026;13.792;2023-04-01T14:57:16;3.13;;;0.90;;
1436;SDS011;712;51.026;13.792;2023-04-01T14:59:49;1.85;;;0.60;;
1436;SDS011;712;51.026;13.792;2023-04-01T15:07:42;1.48;;;0.43;;
1436;SDS011;712;51.026;13.792;2023-04-01T15:18:05;1.92;;;0.50;;
1436;SDS011;712;51.026;13.792;2023-04-01T15:23:31;1.70;;;0.47;;
1436;SDS011;712;51.026;13.792;2023-04-01T15:38:48;1.50;;;0.30;;
1436;SDS011;712;51.026;13.792;2023-04-01T15:41:21;1.48;;;0.40;;
1436;SDS011;712;51.026;13.792;2023-04-01T15:43:48;2.80;;;0.50;;
1436;SDS011;712;51.026;13.792;2023-04-01T15:51:16;2.28;;;0.70;;
1436;SDS011;712;51.026;13.792;2023-04-01T16:01:46;1.13;;;0.40;;
1436;SDS011;712;51.026;13.792;2023-04-01T16:04:19;2.00;;;0.68;;
1436;SDS011;712;51.026;13.792;2023-04-01T16:09:18;2.05;;;0.60;;
1436;SDS011;712;51.026;13.792;2023-04-01T16:17:05;2.22;;;0.70;;
1436;SDS011;712;51.026;13.792;2023-04-01T16:19:44;2.00;;;0.50;;
1436;SDS011;712;51.026;13.792;2023-04-01T16:27:33;2.63;;;0.60;;
1436;SDS011;712;51.026;13.792;2023-04-01T16:37:42;2.40;;;0.73;;
1436;SDS011;712;51.026;13.792;2023-04-01T16:40:16;3.28;;;1.05;;
1436;SDS011;712;51.026;13.792;2023-04-01T16:45:19;7.90;;;3.25;;
1436;SDS011;712;51.026;13.792;2023-04-01T16:47:50;8.25;;;3.30;;
1436;SDS011;712;51.026;13.792;2023-04-01T16:50:19;2.25;;;0.60;;
1436;SDS011;712;51.026;13.792;2023-04-01T16:52:52;1.50;;;0.43;;
1436;SDS011;712;51.026;13.792;2023-04-01T16:55:19;3.55;;;0.90;;
1436;SDS011;712;51.026;13.792;2023-04-01T16:57:50;2.22;;;0.50;;
1436;SDS011;712;51.026;13.792;2023-04-01T17:02:49;2.73;;;0.67;;
1436;SDS011;712;51.026;13.792;2023-04-01T17:05:16;2.08;;;0.70;;
1436;SDS011;712;51.026;13.792;2023-04-01T17:08:03;3.78;;;0.70;;
1436;SDS011;712;51.026;13.792;2023-04-01T17:15:41;2.85;;;0.80;;
1436;SDS011;712;51.026;13.792;2023-04-01T17:23:05;3.72;;;1.20;;
1436;SDS011;712;51.026;13.792;2023-04-01T17:30:47;9.13;;;4.43;;
1436;SDS011;712;51.026;13.792;2023-04-01T17:33:19;5.50;;;2.40;;
1436;SDS011;712;51.026;13.792;2023-04-01T17:43:32;4.90;;;1.67;;
1436;SDS011;712;51.026;13.792;2023-04-01T17:46:02;5.18;;;1.73;;
1436;SDS011;712;51.026;13.792;2023-04-01T17:48:36;5.53;;;1.83;;
1436;SDS011;712;51.026;13.792;2023-04-01T17:51:15;4.75;;;2.03;;
1436;SDS011;712;51.026;13.792;2023-04-01T17:53:47;6.72;;;2.10;;
1436;SDS011;712;51.026;13.792;2023-04-01T17:56:22;5.53;;;2.00;;
1436;SDS011;712;51.026;13.792;2023-04-01T17:59:03;5.13;;;1.90;;
1436;SDS011;712;51.026;13.792;2023-04-01T18:01:36;6.95;;;2.03;;
1436;SDS011;712;51.026;13.792;2023-04-01T18:21:29;5.00;;;2.40;;
1436;SDS011;712;51.026;13.792;2023-04-01T18:23:59;5.93;;;2.80;;
1436;SDS011;712;51.026;13.792;2023-04-01T18:26:30;5.78;;;2.70;;
1436;SDS011;712;51.026;13.792;2023-04-01T18:28:57;6.25;;;3.05;;
1436;SDS011;712;51.026;13.792;2023-04-01T18:31:24;5.80;;;2.80;;
1436;SDS011;712;51.026;13.792;2023-04-01T18:36:21;6.07;;;2.80;;
1436;SDS011;712;51.026;13.792;2023-04-01T18:38:55;6.00;;;2.53;;
1436;SDS011;712;51.026;13.792;2023-04-01T18:41:30;8.63;;;3.10;;
1436;SDS011;712;51.026;13.792;2023-04-01T18:44:11;5.68;;;2.75;;
1436;SDS011;712;51.026;13.792;2023-04-01T18:47:41;5.80;;;2.72;;
1436;SDS011;712;51.026;13.792;2023-04-01T18:52:22;6.78;;;3.53;;
1436;SDS011;712;51.026;13.792;2023-04-01T18:57:38;6.72;;;3.30;;
1436;SDS011;712;51.026;13.792;2023-04-01T19:00:08;8.15;;;3.20;;
1436;SDS011;712;51.026;13.792;2023-04-01T19:02:42;7.30;;;3.17;;
1436;SDS011;712;51.026;13.792;2023-04-01T19:10:07;7.72;;;3.30;;
1436;SDS011;712;51.026;13.792;2023-04-01T19:15:08;7.35;;;3.97;;
1436;SDS011;712;51.026;13.792;2023-04-01T19:17:45;8.10;;;3.20;;
1436;SDS011;712;51.026;13.792;2023-04-01T19:20:26;7.70;;;3.22;;
1436;SDS011;712;51.026;13.792;2023-04-01T19:25:38;6.60;;;3.10;;
1436;SDS011;712;51.026;13.792;2023-04-01T19:30:56;7.57;;;3.20;;
1436;SDS011;712;51.026;13.792;2023-04-01T19:36:11;6.35;;;3.22;;
1436;SDS011;712;51.026;13.792;2023-04-01T19:38:42;7.90;;;3.63;;
1436;SDS011;712;51.026;13.792;2023-04-01T19:43:50;7.13;;;3.05;;
1436;SDS011;712;51.026;13.792;2023-04-01T19:54:13;8.30;;;4.57;;
1436;SDS011;712;51.026;13.792;2023-04-01T19:56:47;8.38;;;4.47;;
1436;SDS011;712;51.026;13.792;2023-04-01T19:59:22;8.07;;;3.92;;
1436;SDS011;712;51.026;13.792;2023-04-01T20:01:53;9.60;;;3.78;;
1436;SDS011;712;51.026;13.792;2023-04-01T20:04:36;8.35;;;4.43;;
1436;SDS011;712;51.026;13.792;2023-04-01T20:07:07;7.40;;;4.25;;
1436;SDS011;712;51.026;13.792;2023-04-01T20:13:05;9.20;;;4.20;;
1436;SDS011;712;51.026;13.792;2023-04-01T20:15:19;8.57;;;4.90;;
1436;SDS011;712;51.026;13.792;2023-04-01T20:17:45;8.23;;;4.57;;
1436;SDS011;712;51.026;13.792;2023-04-01T20:25:15;10.68;;;5.97;;
1436;SDS011;712;51.026;13.792;2023-04-01T20:40:43;11.60;;;5.72;;
1436;SDS011;712;51.026;13.792;2023-04-01T20:43:15;12.45;;;6.70;;
1436;SDS011;712;51.026;13.792;2023-04-01T20:48:38;10.80;;;6.60;;
1436;SDS011;712;51.026;13.792;2023-04-01T20:51:10;11.55;;;6.47;;
1436;SDS011;712;51.026;13.792;2023-04-01T20:53:52;10.50;;;6.13;;
1436;SDS011;712;51.026;13.792;2023-04-01T20:56:30;11.85;;;6.32;;
1436;SDS011;712;51.026;13.792;2023-04-01T20:59:00;11.88;;;6.32;;
1436;SDS011;712;51.026;13.792;2023-04-01T21:01:41;12.57;;;6.80;;
1436;SDS011;712;51.026;13.792;2023-04-01T21:09:18;11.45;;;6.70;;
1436;SDS011;712;51.026;13.792;2023-04-01T21:11:53;11.32;;;6.55;;
1436;SDS011;712;51.026;13.792;2023-04-01T21:17:17;10.68;;;6.28;;
1436;SDS011;712;51.026;13.792;2023-04-01T21:19:52;9.85;;;5.47;;
1436;SDS011;712;51.026;13.792;2023-04-01T21:22:26;9.15;;;4.95;;
1436;SDS011;712;51.026;13.792;2023-04-01T21:27:47;8.65;;;4.47;;
1436;SDS011;712;51.026;13.792;2023-04-01T21:35:34;8.52;;;4.90;;
1436;SDS011;712;51.026;13.792;2023-04-01T21:43:17;9.38;;;5.15;;
1436;SDS011;712;51.026;13.792;2023-04-01T21:56:55;7.47;;;4.18;;
1436;SDS011;712;51.026;13.792;2023-04-01T21:59:30;9.20;;;4.30;;
1436;SDS011;712;51.026;13.792;2023-04-01T22:07:11;6.40;;;3.80;;
1436;SDS011;712;51.026;13.792;2023-04-01T22:09:45;5.72;;;3.20;;
1436;SDS011;712;51.026;13.792;2023-04-01T22:12:20;4.38;;;2.00;;
1436;SDS011;712;51.026;13.792;2023-04-01T22:17:24;3.28;;;1.30;;
1436;SDS011;712;51.026;13.792;2023-04-01T22:25:16;4.03;;;1.00;;
1436;SDS011;712;51.026;13.792;2023-04-01T22:30:17;2.72;;;1.00;;
1436;SDS011;712;51.026;13.792;2023-04-01T22:32:45;3.22;;;1.10;;
1436;SDS011;712;51.026;13.792;2023-04-01T22:35:27;3.50;;;1.00;;
1436;SDS011;712;51.026;13.792;2023-04-01T22:38:30;5.00;;;1.70;;
1436;SDS011;712;51.026;13.792;2023-04-01T22:40:53;3.03;;;1.00;;
1436;SDS011;712;51.026;13.792;2023-04-01T22:48:26;3.65;;;1.33;;
1436;SDS011;712;51.026;13.792;2023-04-01T22:50:58;4.20;;;1.67;;
1436;SDS011;712;51.026;13.792;2023-04-01T22:53:43;4.10;;;1.60;;
1436;SDS011;712;51.026;13.792;2023-04-01T22:56:12;6.28;;;1.70;;
1436;SDS011;712;51.026;13.792;2023-04-01T22:58:43;4.38;;;1.70;;
1436;SDS011;712;51.026;13.792;2023-04-01T23:01:13;5.15;;;2.10;;
1436;SDS011;712;51.026;13.792;2023-04-01T23:03:41;4.18;;;1.92;;